Time;durP1;ratioP1;P1;durP2;ratioP2;P2;SDS_P1;SDS_P2;PMS_P1;PMS_P2;Temp;Humidity;BMP_temperature;BMP_pressure;BME280_temperature;BME280_humidity;BME280_pressure;Samples;Min_cycle;Max_cycle;Signal;HPM_P1;HPM_P2
2023/04/25 00:02:43;;;;;;;25.60;5.30;;;;;7.50;100610.00;;;;9914597;29;20227;-80
2023/04/25 00:07:45;;;;;;;17.80;5.20;;;;;7.50;100606.00;;;;9912444;29;20590;-81
2023/04/25 00:12:47;;;;;;;15.07;4.90;;;;;7.40;100614.00;;;;9887442;29;20612;-80
2023/04/25 00:17:49;;;;;;;15.60;5.07;;;;;7.40;100613.00;;;;9924536;29;20219;-80
2023/04/25 00:22:52;;;;;;;11.53;4.60;;;;;7.40;100615.00;;;;9939147;29;20214;-80
2023/04/25 00:27:54;;;;;;;18.27;5.93;;;;;7.40;100620.00;;;;9923141;29;20330;-80
2023/04/25 00:32:55;;;;;;;15.03;4.43;;;;;7.40;100610.00;;;;9940155;29;20588;-80
2023/04/25 00:37:56;;;;;;;21.57;4.87;;;;;7.40;100613.00;;;;9940486;29;20234;-81
2023/04/25 00:42:58;;;;;;;21.13;5.03;;;;;7.40;100617.00;;;;9939751;29;20699;-80
2023/04/25 00:48:00;;;;;;;15.93;4.60;;;;;7.40;100621.00;;;;9940041;29;20643;-80
2023/04/25 00:53:03;;;;;;;16.33;4.83;;;;;7.40;100622.00;;;;9903686;29;20709;-80
2023/04/25 00:58:04;;;;;;;20.17;5.93;;;;;7.40;100624.00;;;;9907986;29;20590;-80
2023/04/25 01:03:06;;;;;;;20.53;5.30;;;;;7.40;100629.00;;;;9935072;24;20239;-74
2023/04/25 01:08:07;;;;;;;17.17;5.37;;;;;7.40;100629.00;;;;9956893;29;20234;-73
2023/04/25 01:13:09;;;;;;;18.23;5.37;;;;;7.40;100622.00;;;;9968299;29;20222;-73
2023/04/25 01:18:11;;;;;;;17.23;5.50;;;;;7.30;100620.00;;;;9975001;29;20210;-74
2023/04/25 01:23:14;;;;;;;17.00;5.57;;;;;7.30;100624.00;;;;9976223;29;20274;-74
2023/04/25 01:28:15;;;;;;;16.33;5.43;;;;;7.30;100635.00;;;;9949188;29;20729;-73
2023/04/25 01:33:20;;;;;;;24.53;6.20;;;;;7.30;100639.00;;;;9966699;29;20655;-75
2023/04/25 01:38:22;;;;;;;19.77;5.80;;;;;7.30;100646.00;;;;9966402;29;20255;-74
2023/04/25 01:43:23;;;;;;;16.70;4.97;;;;;7.20;100648.00;;;;9981739;29;20704;-74
2023/04/25 01:48:25;;;;;;;15.10;5.73;;;;;7.10;100654.00;;;;9967582;29;20271;-73
2023/04/25 01:53:26;;;;;;;12.57;5.73;;;;;7.00;100653.00;;;;9992220;29;20364;-73
2023/04/25 01:58:28;;;;;;;24.73;7.07;;;;;6.90;100657.00;;;;9928699;29;20230;-74
2023/04/25 02:03:45;;;;;;;15.10;5.37;;;;;6.90;100657.00;;;;9929484;29;20215;-76
2023/04/25 02:08:56;;;;;;;17.97;6.23;;;;;6.80;100667.00;;;;9960066;29;20237;-74
2023/04/25 02:13:58;;;;;;;21.80;5.83;;;;;6.80;100676.00;;;;9956998;29;20222;-74
2023/04/25 02:19:17;;;;;;;17.90;6.20;;;;;6.80;100671.00;;;;9961290;29;20225;-75
2023/04/25 02:24:18;;;;;;;13.43;5.60;;;;;6.80;100667.00;;;;9978766;29;20263;-74
2023/04/25 02:29:20;;;;;;;27.90;6.37;;;;;6.80;100669.00;;;;9948926;29;20234;-74
2023/04/25 02:34:21;;;;;;;14.63;5.80;;;;;6.80;100668.00;;;;9977529;29;20226;-74
2023/04/25 02:39:24;;;;;;;15.80;5.73;;;;;6.80;100661.00;;;;9933214;29;20417;-74
2023/04/25 02:44:26;;;;;;;21.97;5.67;;;;;6.80;100670.00;;;;9968968;29;20821;-74
2023/04/25 02:49:27;;;;;;;20.10;7.07;;;;;6.80;100663.00;;;;9981442;29;20230;-75
2023/04/25 02:54:29;;;;;;;22.37;7.77;;;;;6.70;100666.00;;;;9978070;29;20225;-74
2023/04/25 02:59:32;;;;;;;18.80;6.17;;;;;6.70;100659.00;;;;9963091;29;20254;-73
2023/04/25 03:04:33;;;;;;;21.57;6.03;;;;;6.70;100665.00;;;;9939665;29;20234;-75
2023/04/25 03:09:34;;;;;;;20.20;7.73;;;;;6.70;100661.00;;;;9916622;29;20342;-75
2023/04/25 03:14:37;;;;;;;22.17;6.20;;;;;6.70;100665.00;;;;9913196;29;20664;-75
2023/04/25 03:19:39;;;;;;;18.50;6.03;;;;;6.70;100677.00;;;;9914515;29;20231;-73
2023/04/25 03:24:40;;;;;;;18.50;6.93;;;;;6.70;100690.00;;;;9917543;29;20215;-74
2023/04/25 03:29:42;;;;;;;19.13;5.27;;;;;6.60;100687.00;;;;9902521;29;20245;-73
2023/04/25 03:34:44;;;;;;;26.00;5.97;;;;;6.30;100684.00;;;;9960173;29;20317;-73
2023/04/25 03:39:46;;;;;;;24.90;5.03;;;;;6.20;100696.00;;;;9907995;29;20223;-74
2023/04/25 03:44:48;;;;;;;21.77;5.50;;;;;6.10;100700.00;;;;9916603;29;20243;-74
2023/04/25 03:49:51;;;;;;;14.43;4.63;;;;;6.00;100699.00;;;;9916830;29;20231;-73
2023/04/25 03:54:56;;;;;;;12.93;5.33;;;;;5.90;100698.00;;;;9901644;29;20298;-74
2023/04/25 04:00:00;;;;;;;13.93;4.90;;;;;5.80;100703.00;;;;9888819;29;20231;-74
2023/04/25 04:05:04;;;;;;;14.13;4.63;;;;;5.80;100700.00;;;;9900532;29;20253;-74
2023/04/25 04:10:10;;;;;;;12.57;5.53;;;;;5.80;100696.00;;;;9918451;29;20761;-74
2023/04/25 04:15:13;;;;;;;14.90;5.10;;;;;5.80;100710.00;;;;9912752;29;20239;-77
2023/04/25 04:20:17;;;;;;;13.47;5.10;;;;;5.70;100717.00;;;;9901435;29;20237;-74
2023/04/25 04:25:19;;;;;;;12.10;4.73;;;;;5.80;100721.00;;;;9885845;29;20215;-75
2023/04/25 04:30:45;;;;;;;16.53;4.27;;;;;5.70;100720.00;;;;9903607;29;20829;-74
2023/04/25 04:35:47;;;;;;;19.57;5.03;;;;;5.80;100726.00;;;;9901551;29;20318;-74
2023/04/25 04:40:50;;;;;;;11.27;4.53;;;;;5.80;100730.00;;;;9937052;29;20257;-74
2023/04/25 04:46:05;;;;;;;15.60;5.17;;;;;5.80;100735.00;;;;9975021;29;20222;-74
2023/04/25 04:51:16;;;;;;;13.50;4.77;;;;;5.80;100742.00;;;;9975328;29;20588;-75
2023/04/25 04:56:38;;;;;;;15.70;5.37;;;;;5.70;100744.00;;;;9955208;29;20225;-74
2023/04/25 05:01:57;;;;;;;14.53;5.47;;;;;5.80;100763.00;;;;9975602;29;20225;-74
2023/04/25 05:07:22;;;;;;;12.13;5.13;;;;;5.80;100764.00;;;;9960517;29;20246;-74
2023/04/25 05:12:44;;;;;;;11.00;5.10;;;;;5.70;100773.00;;;;9921075;29;20230;-74
2023/04/25 05:17:52;;;;;;;15.80;5.17;;;;;5.70;100774.00;;;;9914506;29;20709;-74
2023/04/25 05:23:07;;;;;;;20.07;6.07;;;;;5.70;100777.00;;;;9902757;29;20229;-74
2023/04/25 05:28:17;;;;;;;18.03;5.50;;;;;5.80;100777.00;;;;9936912;29;20689;-74
2023/04/25 05:33:39;;;;;;;18.80;5.63;;;;;5.90;100787.00;;;;9911319;29;20638;-73
2023/04/25 05:38:41;;;;;;;17.83;6.37;;;;;6.10;100791.00;;;;9900323;29;20211;-74
2023/04/25 05:43:49;;;;;;;15.90;7.33;;;;;6.20;100794.00;;;;9900739;29;20231;-74
2023/04/25 05:48:58;;;;;;;17.13;6.20;;;;;6.20;100797.00;;;;9931635;29;20693;-75
2023/04/25 05:54:25;;;;;;;17.83;6.37;;;;;6.30;100806.00;;;;9890842;29;20272;-74
2023/04/25 05:59:29;;;;;;;16.00;7.57;;;;;6.50;100810.00;;;;9921574;29;20241;-74
2023/04/25 06:04:31;;;;;;;17.60;7.23;;;;;6.60;100804.00;;;;9934320;29;20212;-74
2023/04/25 06:09:34;;;;;;;22.07;7.00;;;;;6.80;100818.00;;;;9902935;29;20234;-74
2023/04/25 06:14:35;;;;;;;19.73;7.17;;;;;7.00;100825.00;;;;9916846;29;20677;-73
2023/04/25 06:19:36;;;;;;;19.47;7.03;;;;;6.90;100816.00;;;;9967277;29;20217;-74
2023/04/25 06:24:38;;;;;;;22.27;6.83;;;;;7.10;100827.00;;;;9928104;29;20215;-75
2023/04/25 06:29:40;;;;;;;17.47;6.43;;;;;7.30;100825.00;;;;9930327;29;20230;-73
2023/04/25 06:34:43;;;;;;;13.27;5.53;;;;;7.60;100825.00;;;;9929144;29;20216;-74
2023/04/25 06:39:44;;;;;;;17.93;7.10;;;;;8.00;100829.00;;;;9908216;29;20602;-74
2023/04/25 06:44:46;;;;;;;16.57;7.10;;;;;8.20;100837.00;;;;9888772;29;20216;-74
2023/04/25 06:49:48;;;;;;;18.57;6.83;;;;;8.10;100844.00;;;;9899998;29;21118;-74
2023/04/25 06:54:50;;;;;;;17.00;7.50;;;;;8.10;100855.00;;;;9893873;29;20231;-75
2023/04/25 07:00:09;;;;;;;19.77;7.07;;;;;8.20;100862.00;;;;9919598;29;20215;-72
2023/04/25 07:05:12;;;;;;;16.70;7.17;;;;;8.40;100862.00;;;;9899640;29;20223;-71
2023/04/25 07:10:13;;;;;;;17.07;6.90;;;;;8.70;100866.00;;;;9928445;29;20236;-71
2023/04/25 07:15:15;;;;;;;14.67;5.70;;;;;8.80;100873.00;;;;9904450;29;20223;-72
2023/04/25 07:20:20;;;;;;;13.27;5.57;;;;;9.00;100872.00;;;;9938675;29;20219;-71
2023/04/25 07:25:21;;;;;;;15.93;5.93;;;;;9.40;100871.00;;;;9928731;29;20220;-74
2023/04/25 07:30:23;;;;;;;15.87;5.03;;;;;9.70;100880.00;;;;9933150;29;20235;-72
2023/04/25 07:35:25;;;;;;;16.33;4.97;;;;;9.90;100872.00;;;;9919542;29;20890;-73
2023/04/25 07:40:27;;;;;;;10.13;4.13;;;;;10.00;100874.00;;;;9920527;29;20859;-72
2023/04/25 07:45:34;;;;;;;12.87;4.17;;;;;10.20;100866.00;;;;9907511;29;20226;-74
2023/04/25 07:50:36;;;;;;;15.30;2.97;;;;;10.40;100874.00;;;;9925003;29;20262;-75
2023/04/25 07:55:39;;;;;;;9.43;2.83;;;;;10.30;100876.00;;;;9920685;29;20562;-73
2023/04/25 08:00:46;;;;;;;7.07;3.70;;;;;10.30;100869.00;;;;9923027;29;20221;-72
2023/04/25 08:06:12;;;;;;;13.73;3.70;;;;;10.00;100884.00;;;;9921619;29;20233;-72
2023/04/25 08:11:24;;;;;;;8.63;3.40;;;;;9.90;100897.00;;;;9924910;29;20223;-73
2023/04/25 08:16:27;;;;;;;12.17;3.43;;;;;10.50;100899.00;;;;9922080;29;20238;-72
2023/04/25 08:21:29;;;;;;;7.30;2.43;;;;;11.10;100910.00;;;;9931592;29;20223;-72
2023/04/25 08:26:34;;;;;;;14.43;3.70;;;;;10.50;100916.00;;;;9920285;29;20330;-73
2023/04/25 08:31:37;;;;;;;11.53;4.20;;;;;9.60;100919.00;;;;9911053;29;20237;-74
2023/04/25 08:36:39;;;;;;;12.10;4.47;;;;;9.70;100930.00;;;;9916391;29;20597;-72
2023/04/25 08:42:07;;;;;;;10.20;3.60;;;;;9.90;100930.00;;;;9924432;29;20238;-72
2023/04/25 08:47:09;;;;;;;8.60;2.87;;;;;9.90;100932.00;;;;9940865;29;20328;-72
2023/04/25 08:52:22;;;;;;;12.40;3.30;;;;;11.60;100931.00;;;;9916714;29;20686;-72
2023/04/25 08:57:24;;;;;;;9.37;4.17;;;;;13.40;100929.00;;;;9916925;29;20227;-73
2023/04/25 09:02:26;;;;;;;9.03;3.00;;;;;15.10;100937.00;;;;9929492;29;20226;-73
2023/04/25 09:07:28;;;;;;;8.27;3.10;;;;;13.30;100942.00;;;;9924408;29;20315;-73
2023/04/25 09:12:30;;;;;;;9.37;3.30;;;;;10.90;100962.00;;;;9903951;29;20254;-73
2023/04/25 09:17:33;;;;;;;11.80;3.53;;;;;9.80;100964.00;;;;9938549;29;20325;-72
2023/04/25 09:22:37;;;;;;;6.60;2.23;;;;;9.60;100972.00;;;;9930056;29;20648;-72
2023/04/25 09:27:52;;;;;;;8.97;2.60;;;;;10.10;100980.00;;;;9920803;29;20231;-73
2023/04/25 09:33:07;;;;;;;8.70;2.80;;;;;10.40;100991.00;;;;9878020;29;20219;-73
2023/04/25 09:38:14;;;;;;;7.80;2.97;;;;;11.30;100982.00;;;;9917530;29;20223;-74
2023/04/25 09:43:45;;;;;;;11.13;2.30;;;;;13.00;100976.00;;;;9899970;29;20314;-73
2023/04/25 09:48:51;;;;;;;5.10;2.70;;;;;13.50;100983.00;;;;9905991;29;20223;-73
2023/04/25 09:54:00;;;;;;;8.87;2.00;;;;;12.80;100985.00;;;;9917030;29;20237;-73
2023/04/25 09:59:16;;;;;;;6.20;1.97;;;;;14.80;100986.00;;;;9908502;29;20322;-73
2023/04/25 10:04:25;;;;;;;8.40;2.47;;;;;14.60;100997.00;;;;9907356;29;20250;-73
2023/04/25 10:09:36;;;;;;;7.43;2.33;;;;;13.40;101000.00;;;;9925883;29;20706;-72
2023/04/25 10:14:38;;;;;;;6.57;2.13;;;;;13.30;100991.00;;;;9944314;29;20282;-72
2023/04/25 10:19:39;;;;;;;5.33;1.80;;;;;14.90;101004.00;;;;9938120;29;20268;-73
2023/04/25 10:24:41;;;;;;;5.47;1.95;;;;;16.10;100989.00;;;;9922503;29;20261;-73
2023/04/25 10:29:43;;;;;;;8.30;2.47;;;;;18.30;100989.00;;;;9913645;29;20701;-74
2023/04/25 10:34:48;;;;;;;8.30;2.42;;;;;18.10;101002.00;;;;9918802;29;20235;-72
2023/04/25 10:39:49;;;;;;;5.90;1.75;;;;;16.80;101000.00;;;;9918163;29;20291;-72
2023/04/25 10:45:02;;;;;;;7.50;2.00;;;;;15.40;101001.00;;;;9913079;29;20215;-72
2023/04/25 10:50:07;;;;;;;7.25;1.60;;;;;16.60;101000.00;;;;9928690;29;20251;-72
2023/04/25 10:55:09;;;;;;;6.07;2.15;;;;;14.10;101004.00;;;;9905624;29;20227;-73
2023/04/25 11:00:14;;;;;;;5.00;1.77;;;;;11.50;101014.00;;;;9908504;29;20227;-73
2023/04/25 11:05:38;;;;;;;2.17;1.70;;;;;10.10;101018.00;;;;9928124;29;20297;-73
2023/04/25 11:10:58;;;;;;;7.57;2.30;;;;;9.50;101031.00;;;;9923504;29;20232;-72
2023/04/25 11:16:00;;;;;;;11.23;2.40;;;;;9.90;101016.00;;;;9933317;29;20229;-73
2023/04/25 11:21:14;;;;;;;8.47;2.53;;;;;10.50;101021.00;;;;9921949;29;20291;-73
2023/04/25 11:26:16;;;;;;;8.43;2.60;;;;;11.70;101028.00;;;;9922956;29;20301;-72
2023/04/25 11:31:21;;;;;;;6.13;2.00;;;;;13.00;101023.00;;;;9915597;29;20224;-72
2023/04/25 11:36:24;;;;;;;7.13;1.77;;;;;13.10;101030.00;;;;9914584;29;20632;-72
2023/04/25 11:41:25;;;;;;;5.40;1.40;;;;;12.60;101010.00;;;;9934755;29;20227;-72
2023/04/25 11:46:27;;;;;;;4.03;1.63;;;;;12.50;101026.00;;;;9934322;29;20227;-72
2023/04/25 11:51:30;;;;;;;3.17;1.60;;;;;12.70;101013.00;;;;9947071;29;20292;-73
2023/04/25 11:56:32;;;;;;;6.10;1.53;;;;;14.40;101008.00;;;;9903329;29;20214;-72
2023/04/25 12:01:38;;;;;;;4.83;1.30;;;;;16.00;101022.00;;;;9941124;29;20841;-73
2023/04/25 12:06:41;;;;;;;4.20;1.70;;;;;17.20;101024.00;;;;9928485;29;20230;-72
2023/04/25 12:11:53;;;;;;;4.60;1.25;;;;;16.40;101029.00;;;;9906030;29;20219;-73
2023/04/25 12:16:57;;;;;;;3.13;1.08;;;;;14.30;101032.00;;;;9910915;29;20847;-75
2023/04/25 12:22:00;;;;;;;2.47;1.00;;;;;13.70;101037.00;;;;9913723;29;20219;-73
2023/04/25 12:27:04;;;;;;;2.20;0.90;;;;;13.80;101036.00;;;;9909567;29;20235;-73
2023/04/25 12:32:05;;;;;;;5.33;1.33;;;;;13.90;101027.00;;;;9931167;29;20271;-72
2023/04/25 12:37:07;;;;;;;2.07;0.80;;;;;15.20;101031.00;;;;9931833;29;20278;-73
2023/04/25 12:42:11;;;;;;;2.00;0.90;;;;;14.90;101043.00;;;;9921289;29;20660;-72
2023/04/25 12:47:12;;;;;;;3.47;1.23;;;;;14.50;101051.00;;;;9904390;29;20231;-73
2023/04/25 12:52:14;;;;;;;5.43;1.10;;;;;14.50;101048.00;;;;9936075;29;20313;-75
2023/04/25 12:57:16;;;;;;;3.07;1.23;;;;;14.40;101054.00;;;;9917151;29;20242;-73
2023/04/25 13:02:17;;;;;;;5.40;1.37;;;;;15.00;101037.00;;;;9924648;29;20246;-73
2023/04/25 13:07:18;;;;;;;6.57;1.30;;;;;15.90;101052.00;;;;9911841;29;20227;-72
2023/04/25 13:12:20;;;;;;;6.93;1.40;;;;;15.40;101057.00;;;;9940434;29;20274;-73
2023/04/25 13:17:21;;;;;;;4.65;1.33;;;;;16.10;101057.00;;;;9943345;29;20298;-72
2023/04/25 13:22:23;;;;;;;4.07;1.20;;;;;16.60;101044.00;;;;9919980;29;20554;-73
2023/04/25 13:27:24;;;;;;;4.82;1.33;;;;;16.50;101050.00;;;;9926691;29;20238;-75
2023/04/25 13:32:26;;;;;;;4.72;1.30;;;;;16.70;101043.00;;;;9922748;29;20686;-73
2023/04/25 13:37:29;;;;;;;4.00;1.40;;;;;17.90;101052.00;;;;9933599;29;20222;-74
2023/04/25 13:42:31;;;;;;;5.93;1.42;;;;;16.90;101050.00;;;;9911713;29;20894;-73
2023/04/25 13:47:34;;;;;;;4.82;1.20;;;;;18.00;101036.00;;;;9905614;29;20238;-73
2023/04/25 13:52:36;;;;;;;5.07;1.67;;;;;19.80;101025.00;;;;9932086;29;20234;-73
2023/04/25 13:57:37;;;;;;;4.38;1.10;;;;;17.70;101053.00;;;;9967084;29;20232;-74
2023/04/25 14:02:42;;;;;;;2.10;0.90;;;;;15.30;101061.00;;;;9929839;29;20308;-73
2023/04/25 14:07:43;;;;;;;1.75;0.88;;;;;13.80;101060.00;;;;9929437;29;20243;-73
2023/04/25 14:12:44;;;;;;;3.27;1.33;;;;;14.60;101060.00;;;;9917647;29;20284;-72
2023/04/25 14:17:48;;;;;;;1.23;1.00;;;;;16.10;101039.00;;;;9920797;29;20656;-76
2023/04/25 14:22:49;;;;;;;2.63;1.23;;;;;20.50;101035.00;;;;9915206;29;20208;-74
2023/04/25 14:27:50;;;;;;;5.40;1.37;;;;;22.70;101041.00;;;;9933973;29;20227;-72
2023/04/25 14:32:52;;;;;;;3.60;1.55;;;;;24.20;101046.00;;;;9926730;29;20283;-74
2023/04/25 14:37:53;;;;;;;5.53;0.95;;;;;24.80;101060.00;;;;9914776;29;20231;-74
2023/04/25 14:42:55;;;;;;;3.17;1.25;;;;;24.60;101059.00;;;;9909453;29;20231;-73
2023/04/25 14:47:56;;;;;;;2.13;0.90;;;;;23.70;101079.00;;;;9913741;29;20302;-73
2023/04/25 14:53:00;;;;;;;3.13;1.13;;;;;19.80;101068.00;;;;9910572;29;20283;-72
2023/04/25 14:58:01;;;;;;;4.38;1.17;;;;;20.20;101069.00;;;;9916091;29;20360;-73
2023/04/25 15:03:03;;;;;;;2.60;0.88;;;;;19.30;101066.00;;;;9901363;29;20239;-74
2023/04/25 15:08:05;;;;;;;4.43;1.40;;;;;16.50;101092.00;;;;9935407;29;20226;-73
2023/04/25 15:13:07;;;;;;;1.95;1.02;;;;;15.50;101094.00;;;;9908355;29;20276;-73
2023/04/25 15:18:08;;;;;;;3.40;1.10;;;;;14.40;101095.00;;;;9909425;29;20267;-74
2023/04/25 15:23:10;;;;;;;3.13;1.30;;;;;14.30;101095.00;;;;9936923;29;20222;-73
2023/04/25 15:28:13;;;;;;;3.20;1.10;;;;;14.80;101087.00;;;;9912313;29;20231;-74
2023/04/25 15:33:14;;;;;;;5.97;1.00;;;;;14.60;101103.00;;;;9911337;29;20226;-72
2023/04/25 15:38:16;;;;;;;5.60;1.30;;;;;13.00;101114.00;;;;9932691;29;20492;-72
2023/04/25 15:43:17;;;;;;;3.70;1.00;;;;;14.30;101116.00;;;;9932774;29;20310;-73
2023/04/25 15:48:19;;;;;;;4.57;0.87;;;;;13.80;101116.00;;;;9927873;29;20581;-73
2023/04/25 15:53:20;;;;;;;1.33;0.93;;;;;12.30;101117.00;;;;9952434;29;20571;-73
2023/04/25 15:58:22;;;;;;;3.97;1.03;;;;;11.80;101117.00;;;;9916331;29;20223;-72
2023/04/25 16:03:23;;;;;;;1.93;0.70;;;;;13.10;101120.00;;;;9969360;29;20793;-73
2023/04/25 16:08:25;;;;;;;7.53;1.30;;;;;12.80;101126.00;;;;9956213;29;20234;-74
2023/04/25 16:13:26;;;;;;;5.17;1.10;;;;;12.40;101134.00;;;;9921088;29;20222;-73
2023/04/25 16:18:28;;;;;;;4.27;1.37;;;;;11.40;101138.00;;;;9936130;29;20217;-73
2023/04/25 16:23:30;;;;;;;1.30;0.90;;;;;10.90;101141.00;;;;9936675;29;20243;-72
2023/04/25 16:28:31;;;;;;;3.90;1.37;;;;;10.60;101131.00;;;;9911098;29;20879;-73
2023/04/25 16:33:33;;;;;;;1.43;0.90;;;;;10.20;101142.00;;;;9901034;29;20269;-74
2023/04/25 16:38:34;;;;;;;6.43;1.20;;;;;10.40;101144.00;;;;9913961;29;20303;-73
2023/04/25 16:43:38;;;;;;;6.27;1.20;;;;;10.40;101140.00;;;;9900123;29;20215;-72
2023/04/25 16:48:40;;;;;;;5.80;1.27;;;;;10.10;101150.00;;;;9884099;29;20231;-73
2023/04/25 16:53:42;;;;;;;4.97;1.47;;;;;9.70;101150.00;;;;9901907;29;20235;-75
2023/04/25 16:58:43;;;;;;;3.57;1.17;;;;;9.80;101140.00;;;;9899045;29;20235;-72
2023/04/25 17:03:46;;;;;;;3.57;1.40;;;;;10.00;101151.00;;;;9898408;29;20338;-73
2023/04/25 17:08:47;;;;;;;2.47;1.37;;;;;10.00;101153.00;;;;9901388;29;20231;-73
2023/04/25 17:13:49;;;;;;;5.27;1.27;;;;;9.90;101148.00;;;;9899938;29;20219;-72
2023/04/25 17:18:51;;;;;;;6.07;1.50;;;;;9.90;101152.00;;;;9900270;29;20635;-73
2023/04/25 17:23:53;;;;;;;6.83;1.27;;;;;9.70;101164.00;;;;9902436;29;20224;-72
2023/04/25 17:28:54;;;;;;;5.53;1.30;;;;;9.70;101165.00;;;;9921365;29;20238;-73
2023/04/25 17:33:56;;;;;;;3.13;0.90;;;;;9.60;101172.00;;;;9911668;29;20214;-73
2023/04/25 17:38:57;;;;;;;3.60;1.30;;;;;9.50;101171.00;;;;9934871;29;20241;-73
2023/04/25 17:43:59;;;;;;;5.80;1.50;;;;;9.50;101174.00;;;;9935582;29;20211;-75
2023/04/25 17:49:00;;;;;;;4.17;1.23;;;;;9.30;101176.00;;;;9930470;29;20230;-73
2023/04/25 17:54:02;;;;;;;5.80;1.27;;;;;9.20;101177.00;;;;9898550;29;20215;-75
2023/04/25 17:59:04;;;;;;;3.47;1.20;;;;;9.00;101186.00;;;;9897998;29;20243;-74
2023/04/25 18:04:05;;;;;;;4.27;1.40;;;;;8.90;101186.00;;;;9898483;29;20220;-74
2023/04/25 18:09:14;;;;;;;6.27;1.53;;;;;8.80;101186.00;;;;9923631;29;20728;-72
2023/04/25 18:14:16;;;;;;;4.50;1.40;;;;;8.60;101187.00;;;;9934804;29;20748;-72
2023/04/25 18:19:20;;;;;;;6.70;1.63;;;;;8.50;101203.00;;;;9916357;29;20278;-74
2023/04/25 18:24:25;;;;;;;4.47;1.50;;;;;8.30;101205.00;;;;9919241;29;20215;-71
2023/04/25 18:29:27;;;;;;;5.77;1.43;;;;;8.10;101209.00;;;;9909290;29;20288;-72
2023/04/25 18:34:31;;;;;;;3.63;1.33;;;;;8.00;101224.00;;;;9931927;29;20297;-72
2023/04/25 18:39:33;;;;;;;6.47;1.60;;;;;7.80;101241.00;;;;9940764;29;20360;-72
2023/04/25 18:44:38;;;;;;;7.30;1.80;;;;;7.60;101234.00;;;;9939594;29;20219;-72
2023/04/25 18:49:40;;;;;;;5.53;1.90;;;;;7.40;101239.00;;;;9903555;29;20235;-71
2023/04/25 18:54:41;;;;;;;5.97;1.50;;;;;7.20;101240.00;;;;9904166;29;20219;-73
2023/04/25 18:59:44;;;;;;;3.23;1.40;;;;;7.10;101241.00;;;;9894770;29;20318;-74
2023/04/25 19:04:46;;;;;;;5.67;1.37;;;;;7.00;101253.00;;;;9939871;29;20214;-74
2023/04/25 19:09:48;;;;;;;3.37;1.23;;;;;6.80;101260.00;;;;9910171;29;20563;-74
2023/04/25 19:14:49;;;;;;;4.57;1.60;;;;;6.60;101253.00;;;;9919114;29;20227;-73
2023/04/25 19:19:51;;;;;;;2.97;1.23;;;;;6.50;101255.00;;;;9930995;29;20216;-75
2023/04/25 19:24:52;;;;;;;8.73;1.73;;;;;6.40;101262.00;;;;9927713;29;20218;-72
2023/04/25 19:30:11;;;;;;;6.60;2.30;;;;;6.30;101263.00;;;;9911104;29;20853;-72
2023/04/25 19:35:13;;;;;;;3.07;1.77;;;;;6.20;101278.00;;;;9931811;29;20214;-72
2023/04/25 19:40:15;;;;;;;4.17;1.93;;;;;6.10;101270.00;;;;9942805;29;20226;-72
2023/04/25 19:45:17;;;;;;;7.93;1.80;;;;;6.00;101273.00;;;;9907511;29;20690;-72
2023/04/25 19:50:20;;;;;;;5.93;1.70;;;;;5.90;101275.00;;;;9919326;29;20283;-73
2023/04/25 19:55:22;;;;;;;6.27;1.57;;;;;5.80;101282.00;;;;9931866;29;20227;-72
2023/04/25 20:00:23;;;;;;;8.93;1.93;;;;;5.80;101287.00;;;;9901883;29;20227;-73
2023/04/25 20:05:26;;;;;;;8.47;2.07;;;;;5.70;101285.00;;;;9901605;29;20796;-72
2023/04/25 20:10:27;;;;;;;6.90;2.27;;;;;5.60;101292.00;;;;9923084;29;20423;-74
2023/04/25 20:15:29;;;;;;;7.07;2.40;;;;;5.40;101279.00;;;;9904974;29;20218;-71
2023/04/25 20:20:30;;;;;;;6.73;2.33;;;;;5.20;101285.00;;;;9936946;29;20226;-72
2023/04/25 20:25:32;;;;;;;10.60;2.57;;;;;5.10;101288.00;;;;9920994;29;20223;-72
2023/04/25 20:30:33;;;;;;;8.63;2.60;;;;;5.00;101294.00;;;;9929335;29;20261;-71
2023/04/25 20:35:35;;;;;;;9.33;2.87;;;;;4.90;101304.00;;;;9953293;29;20865;-75
2023/04/25 20:40:37;;;;;;;9.03;3.03;;;;;4.90;101296.00;;;;9961934;29;20642;-72
2023/04/25 20:45:38;;;;;;;8.07;3.30;;;;;4.80;101306.00;;;;9964012;29;20362;-74
2023/04/25 20:50:40;;;;;;;5.53;3.20;;;;;4.70;101305.00;;;;9936964;29;20218;-72
2023/04/25 20:55:43;;;;;;;5.73;2.40;;;;;4.60;101295.00;;;;9911121;29;20307;-73
2023/04/25 21:00:46;;;;;;;18.03;3.30;;;;;4.60;101309.00;;;;9914412;29;20294;-73
2023/04/25 21:05:47;;;;;;;6.87;3.50;;;;;4.50;101304.00;;;;9900221;29;20694;-72
2023/04/25 21:10:48;;;;;;;10.20;3.10;;;;;4.30;101306.00;;;;9908849;29;20227;-72
2023/04/25 21:15:50;;;;;;;11.27;3.50;;;;;4.20;101310.00;;;;9935876;29;20697;-73
2023/04/25 21:20:52;;;;;;;12.23;2.93;;;;;4.00;101306.00;;;;9946578;29;20217;-72
2023/04/25 21:25:53;;;;;;;11.87;3.20;;;;;3.80;101310.00;;;;9974502;29;20217;-72
2023/04/25 21:30:54;;;;;;;6.37;2.90;;;;;3.70;101304.00;;;;9974950;29;20259;-72
2023/04/25 21:35:56;;;;;;;4.97;3.17;;;;;3.60;101305.00;;;;9947326;29;20702;-72
2023/04/25 21:40:58;;;;;;;11.17;4.10;;;;;3.50;101314.00;;;;9898803;29;20215;-72
2023/04/25 21:45:59;;;;;;;7.33;3.67;;;;;3.50;101327.00;;;;9898679;29;20273;-74
2023/04/25 21:51:21;;;;;;;9.93;3.70;;;;;3.40;101323.00;;;;9902936;29;20231;-73
2023/04/25 21:56:23;;;;;;;8.40;3.87;;;;;3.30;101340.00;;;;9904581;29;20207;-72
2023/04/25 22:01:25;;;;;;;9.97;4.07;;;;;3.20;101341.00;;;;9893056;29;20227;-72
2023/04/25 22:06:27;;;;;;;11.03;6.03;;;;;3.10;101339.00;;;;9939734;29;20801;-72
2023/04/25 22:11:28;;;;;;;9.80;4.93;;;;;3.10;101329.00;;;;9955148;29;20232;-72
2023/04/25 22:16:30;;;;;;;14.30;6.27;;;;;3.00;101331.00;;;;9910791;29;20218;-74
2023/04/25 22:21:31;;;;;;;17.23;5.70;;;;;2.90;101325.00;;;;9941030;29;20271;-75
2023/04/25 22:26:33;;;;;;;12.43;5.40;;;;;2.90;101322.00;;;;9940339;29;20275;-72
2023/04/25 22:31:34;;;;;;;8.87;5.57;;;;;2.80;101331.00;;;;9923289;29;20882;-73
2023/04/25 22:36:36;;;;;;;11.97;6.27;;;;;2.70;101327.00;;;;9949042;29;20232;-73
2023/04/25 22:41:37;;;;;;;15.23;5.73;;;;;2.70;101327.00;;;;9941117;29;20222;-73
2023/04/25 22:46:39;;;;;;;16.07;5.23;;;;;2.60;101338.00;;;;9936785;29;20219;-73
2023/04/25 22:51:41;;;;;;;13.77;5.33;;;;;2.50;101343.00;;;;9938572;29;20222;-72
2023/04/25 22:56:42;;;;;;;8.23;5.03;;;;;2.50;101340.00;;;;9940937;29;20631;-75
2023/04/25 23:01:44;;;;;;;8.13;4.77;;;;;2.40;101350.00;;;;9910241;29;20691;-73
2023/04/25 23:06:45;;;;;;;8.30;5.30;;;;;2.30;101352.00;;;;9918618;29;20220;-75
2023/04/25 23:11:47;;;;;;;13.67;6.03;;;;;2.20;101350.00;;;;9938664;29;20648;-75
2023/04/25 23:16:48;;;;;;;17.30;5.50;;;;;2.20;101343.00;;;;9903190;29;20259;-72
2023/04/25 23:21:50;;;;;;;14.40;6.87;;;;;2.10;101344.00;;;;9916646;29;20261;-74
2023/04/25 23:26:51;;;;;;;10.00;6.10;;;;;2.10;101343.00;;;;9924659;29;20222;-75
2023/04/25 23:31:53;;;;;;;23.03;9.27;;;;;2.00;101348.00;;;;9940089;29;20700;-74
2023/04/25 23:36:54;;;;;;;20.40;9.57;;;;;2.00;101346.00;;;;9929317;29;20246;-73
2023/04/25 23:41:56;;;;;;;24.67;9.77;;;;;1.90;101346.00;;;;9902450;29;20315;-74
2023/04/25 23:46:58;;;;;;;16.50;7.83;;;;;1.80;101342.00;;;;9902674;29;20222;-73
2023/04/25 23:51:59;;;;;;;17.60;7.37;;;;;1.80;101346.00;;;;9947750;29;20221;-72
2023/04/25 23:57:03;;;;;;;17.03;8.17;;;;;1.80;101333.00;;;;9939191;29;20790;-73
